createdAt,value
2019-04-23T00:02:46.086Z,8.80
2019-04-23T00:05:21.064Z,8.70
2019-04-23T00:07:48.651Z,8.70
2019-04-23T00:12:52.777Z,8.60
2019-04-23T00:15:10.487Z,8.60
2019-04-23T00:20:14.783Z,8.60
2019-04-23T00:25:49.743Z,8.60
2019-04-23T00:28:16.106Z,8.60
2019-04-23T00:30:44.059Z,8.60
2019-04-23T00:33:15.640Z,8.70
2019-04-23T00:35:38.271Z,8.70
2019-04-23T00:38:21.506Z,8.70
2019-04-23T00:40:40.607Z,8.70
2019-04-23T00:43:20.821Z,8.70
2019-04-23T00:48:14.970Z,8.60
2019-04-23T00:50:46.498Z,8.50
2019-04-23T00:53:10.919Z,8.40
2019-04-23T00:55:46.589Z,8.40
2019-04-23T00:58:12.840Z,8.30
2019-04-23T01:00:43.550Z,8.30
2019-04-23T01:08:12.880Z,8.10
2019-04-23T01:10:57.197Z,8.10
2019-04-23T01:15:56.336Z,8.00
2019-04-23T01:20:54.536Z,8.00
2019-04-23T01:23:32.261Z,8.10
2019-04-23T01:26:02.654Z,8.10
2019-04-23T01:28:55.795Z,8.10
2019-04-23T01:31:20.154Z,8.00
2019-04-23T01:33:53.634Z,8.00
2019-04-23T01:36:34.768Z,8.00
2019-04-23T01:38:54.741Z,8.10
2019-04-23T01:41:21.702Z,8.10
2019-04-23T01:44:06.940Z,8.10
2019-04-23T01:46:26.602Z,8.20
2019-04-23T01:48:56.766Z,8.20
2019-04-23T01:51:27.954Z,8.20
2019-04-23T01:53:54.985Z,8.10
2019-04-23T01:58:53.581Z,8.30
2019-04-23T02:01:25.765Z,8.40
2019-04-23T02:03:58.270Z,8.50
2019-04-23T02:06:25.128Z,8.50
2019-04-23T02:08:52.175Z,8.50
2019-04-23T02:11:18.374Z,8.50
2019-04-23T02:14:09.602Z,8.50
2019-04-23T02:16:26.220Z,8.50
2019-04-23T02:18:56.811Z,8.50
2019-04-23T02:21:35.105Z,8.50
2019-04-23T02:23:57.305Z,8.50
2019-04-23T02:26:46.805Z,8.60
2019-04-23T02:31:53.118Z,8.70
2019-04-23T02:34:12.189Z,8.80
2019-04-23T02:36:40.355Z,8.90
2019-04-23T02:39:21.788Z,8.90
2019-04-23T02:41:41.496Z,9.00
2019-04-23T02:44:13.147Z,9.00
2019-04-23T02:46:38.499Z,9.20
2019-04-23T02:54:04.674Z,9.10
2019-04-23T02:59:10.564Z,9.10
2019-04-23T03:01:57.596Z,9.10
2019-04-23T03:04:16.812Z,9.00
2019-04-23T03:06:40.059Z,9.00
2019-04-23T03:09:33.953Z,8.90
2019-04-23T03:11:42.121Z,9.00
2019-04-23T03:14:07.425Z,9.00
2019-04-23T03:16:53.980Z,9.00
2019-04-23T03:19:23.931Z,9.00
2019-04-23T03:22:03.787Z,8.90
2019-04-23T03:24:55.821Z,8.90
2019-04-23T03:27:19.205Z,8.80
2019-04-23T03:37:30.698Z,8.60
2019-04-23T03:42:19.988Z,8.60
2019-04-23T03:44:47.801Z,8.60
2019-04-23T03:47:18.459Z,8.60
2019-04-23T03:49:46.369Z,8.70
2019-04-23T03:52:20.726Z,8.60
2019-04-23T03:57:20.269Z,8.60
2019-04-23T04:00:03.436Z,8.50
2019-04-23T04:02:30.765Z,8.60
2019-04-23T04:04:51.877Z,8.50
2019-04-23T04:07:36.539Z,8.60
2019-04-23T04:09:57.769Z,8.60
2019-04-23T04:12:39.336Z,8.50
2019-04-23T04:15:03.905Z,8.50
2019-04-23T04:22:44.144Z,8.70
2019-04-23T04:25:08.767Z,8.70
2019-04-23T04:32:33.660Z,8.80
2019-04-23T04:40:11.055Z,9.00
2019-04-23T04:42:57.524Z,9.10
2019-04-23T04:52:41.183Z,9.70
2019-04-23T04:55:03.246Z,9.90
2019-04-23T05:00:20.269Z,10.70
2019-04-23T05:03:29.689Z,11.30
2019-04-23T05:05:20.540Z,11.80
2019-04-23T05:10:08.919Z,12.70
2019-04-23T05:12:27.450Z,12.80
2019-04-23T05:17:32.557Z,12.40
2019-04-23T05:19:57.414Z,12.30
2019-04-23T05:22:36.127Z,12.50
2019-04-23T05:24:51.269Z,13.10
2019-04-23T05:27:28.947Z,13.70
2019-04-23T05:30:06.068Z,14.10
2019-04-23T05:32:29.074Z,14.50
2019-04-23T05:34:57.674Z,14.80
2019-04-23T05:37:39.416Z,14.70
2019-04-23T05:39:56.679Z,14.10
2019-04-23T05:42:32.063Z,13.40
2019-04-23T05:50:00.745Z,14.50
2019-04-23T05:55:01.734Z,13.50
2019-04-23T05:57:27.178Z,13.10
2019-04-23T06:00:02.354Z,12.80
2019-04-23T06:02:35.346Z,12.60
2019-04-23T06:05:04.079Z,12.90
2019-04-23T06:09:59.298Z,13.20
2019-04-23T06:12:33.642Z,13.30
2019-04-23T06:14:57.411Z,13.70
2019-04-23T06:17:25.425Z,14.10
2019-04-23T06:20:07.847Z,14.70
2019-04-23T06:22:34.674Z,15.20
2019-04-23T06:25:09.324Z,16.40
2019-04-23T06:27:33.844Z,17.30
2019-04-23T06:30:21.188Z,17.30
2019-04-23T06:32:34.210Z,17.40
2019-04-23T06:35:01.303Z,17.70
2019-04-23T06:40:00.097Z,16.50
2019-04-23T06:42:36.120Z,15.80
2019-04-23T06:45:01.009Z,15.20
2019-04-23T06:47:53.986Z,14.50
2019-04-23T06:52:31.434Z,13.70
2019-04-23T06:55:08.775Z,13.50
2019-04-23T06:57:44.213Z,13.40
2019-04-23T07:00:25.805Z,13.50
2019-04-23T07:02:37.671Z,13.60
2019-04-23T07:05:14.544Z,13.70
2019-04-23T07:07:52.831Z,13.70
2019-04-23T07:10:06.772Z,13.80
2019-04-23T07:12:38.805Z,13.80
2019-04-23T07:15:33.462Z,13.70
2019-04-23T07:17:38.076Z,13.70
2019-04-23T07:20:09.287Z,13.60
2019-04-23T07:22:34.582Z,13.50
2019-04-23T07:25:11.130Z,13.50
2019-04-23T07:27:37.832Z,13.50
2019-04-23T07:32:37.735Z,13.40
2019-04-23T07:35:13.666Z,13.40
2019-04-23T07:37:48.872Z,13.50
2019-04-23T07:40:22.967Z,13.50
2019-04-23T07:43:06.473Z,13.60
2019-04-23T07:45:30.948Z,13.60
2019-04-23T07:53:17.265Z,13.80
2019-04-23T07:58:23.800Z,13.90
2019-04-23T08:03:17.322Z,14.00
2019-04-23T08:05:39.610Z,14.10
2019-04-23T08:08:07.148Z,14.30
2019-04-23T08:10:55.201Z,14.30
2019-04-23T08:13:17.712Z,14.50
2019-04-23T08:18:16.107Z,14.80
2019-04-23T08:20:42.029Z,14.90
2019-04-23T08:23:16.203Z,15.10
2019-04-23T08:26:03.231Z,15.40
2019-04-23T08:28:37.821Z,15.80
2019-04-23T08:30:56.781Z,16.40
2019-04-23T08:33:24.757Z,17.30
2019-04-23T08:35:57.685Z,17.70
2019-04-23T08:38:32.411Z,17.30
2019-04-23T08:41:06.099Z,16.40
2019-04-23T08:43:47.809Z,16.00
2019-04-23T08:46:07.143Z,15.90
2019-04-23T08:48:34.493Z,15.80
2019-04-23T08:51:10.773Z,15.50
2019-04-23T08:56:07.462Z,15.30
2019-04-23T09:01:06.329Z,15.10
2019-04-23T09:06:05.859Z,15.20
2019-04-23T09:08:33.174Z,15.30
2019-04-23T09:18:32.167Z,16.10
2019-04-23T09:21:05.441Z,16.30
2019-04-23T09:28:43.382Z,17.10
2019-04-23T09:31:38.576Z,17.60
2019-04-23T09:36:38.097Z,18.50
2019-04-23T09:39:07.043Z,18.80
2019-04-23T09:41:58.903Z,18.80
2019-04-23T09:49:50.147Z,21.20
2019-04-23T09:52:20.126Z,21.90
2019-04-23T09:54:58.609Z,22.50
2019-04-23T09:57:10.573Z,22.50
2019-04-23T10:02:06.818Z,22.90
2019-04-23T10:04:36.542Z,22.80
2019-04-23T10:07:05.491Z,23.10
2019-04-23T10:09:22.738Z,23.60
2019-04-23T10:11:53.281Z,23.30
2019-04-23T10:14:21.775Z,23.40
2019-04-23T10:16:51.660Z,22.60
2019-04-23T10:19:20.519Z,22.50
2019-04-23T10:21:49.200Z,22.70
2019-04-23T10:24:19.106Z,23.10
2019-04-23T10:26:48.138Z,23.50
2019-04-23T10:29:21.494Z,23.60
2019-04-23T10:31:51.091Z,23.60
2019-04-23T10:34:21.179Z,22.80
2019-04-23T10:36:51.187Z,23.00
2019-04-23T10:39:25.801Z,22.80
2019-04-23T10:41:50.962Z,23.20
2019-04-23T10:44:23.325Z,22.50
2019-04-23T10:47:23.712Z,22.50
2019-04-23T10:49:59.788Z,23.00
2019-04-23T10:52:28.028Z,22.60
2019-04-23T10:55:00.807Z,21.70
2019-04-23T10:57:22.670Z,21.80
2019-04-23T10:59:53.950Z,22.00
2019-04-23T11:05:00.439Z,23.00
2019-04-23T11:17:45.605Z,21.70
2019-04-23T11:25:26.396Z,20.60
2019-04-23T11:27:53.925Z,19.50
2019-04-23T11:30:27.494Z,18.90
2019-04-23T11:35:26.191Z,18.10
2019-04-23T11:40:15.820Z,17.70
2019-04-23T11:42:51.373Z,17.60
2019-04-23T11:45:30.593Z,17.60
2019-04-23T11:50:25.911Z,17.50
2019-04-23T11:52:52.324Z,17.50
2019-04-23T11:55:35.790Z,17.60
2019-04-23T12:00:25.963Z,17.50
2019-04-23T12:02:57.537Z,17.50
2019-04-23T12:05:58.302Z,17.70
2019-04-23T12:08:34.933Z,17.60
2019-04-23T12:11:27.201Z,17.30
2019-04-23T12:13:52.604Z,17.10
2019-04-23T12:16:20.488Z,17.10
2019-04-23T12:19:01.848Z,17.30
2019-04-23T12:21:24.159Z,17.30
2019-04-23T12:24:22.730Z,17.30
2019-04-23T12:26:35.817Z,16.90
2019-04-23T12:31:24.648Z,16.40
2019-04-23T12:33:57.588Z,16.50
2019-04-23T12:39:05.378Z,16.60
2019-04-23T12:41:30.555Z,16.60
2019-04-23T12:43:58.053Z,16.40
2019-04-23T12:46:38.456Z,16.30
2019-04-23T12:49:34.717Z,16.30
2019-04-23T12:51:43.570Z,16.20
2019-04-23T12:53:57.566Z,16.10
2019-04-23T12:56:40.331Z,16.00
2019-04-23T12:59:01.703Z,15.90
2019-04-23T13:01:36.018Z,15.70
2019-04-23T13:03:51.016Z,15.70
2019-04-23T13:06:28.211Z,15.70
2019-04-23T13:09:00.883Z,15.70
2019-04-23T13:11:34.434Z,15.50
2019-04-23T13:14:07.185Z,15.50
2019-04-23T13:19:21.476Z,15.50
2019-04-23T13:21:51.294Z,15.60
2019-04-23T13:24:30.719Z,15.50
2019-04-23T13:26:56.921Z,15.50
2019-04-23T13:29:37.955Z,15.50
2019-04-23T13:31:59.000Z,15.30
2019-04-23T13:34:34.865Z,15.20
2019-04-23T13:39:33.300Z,15.10
2019-04-23T13:41:53.977Z,15.10
2019-04-23T13:44:27.652Z,15.00
2019-04-23T13:47:00.542Z,15.10
2019-04-23T13:49:26.046Z,15.20
2019-04-23T13:52:02.700Z,15.40
2019-04-23T13:54:52.695Z,15.40
2019-04-23T13:59:39.245Z,15.30
2019-04-23T14:02:03.248Z,15.30
2019-04-23T14:04:45.107Z,15.40
2019-04-23T14:07:10.799Z,15.40
2019-04-23T14:12:11.504Z,15.30
2019-04-23T14:15:12.804Z,15.20
2019-04-23T14:17:18.716Z,15.20
2019-04-23T14:19:39.292Z,15.00
2019-04-23T14:22:21.214Z,14.80
2019-04-23T14:24:45.783Z,14.60
2019-04-23T14:27:14.790Z,14.50
2019-04-23T14:29:48.223Z,14.40
2019-04-23T14:32:20.865Z,14.40
2019-04-23T14:34:43.623Z,14.40
2019-04-23T14:37:14.931Z,14.30
2019-04-23T14:39:43.689Z,14.40
2019-04-23T14:42:21.747Z,14.30
2019-04-23T14:44:40.602Z,14.30
2019-04-23T14:47:29.007Z,14.40
2019-04-23T14:55:22.154Z,14.40
2019-04-23T14:57:26.279Z,14.50
2019-04-23T14:59:57.390Z,14.40
2019-04-23T15:02:19.448Z,14.30
2019-04-23T15:04:54.405Z,14.30
2019-04-23T15:07:22.996Z,14.30
2019-04-23T15:10:01.507Z,14.30
2019-04-23T15:12:30.192Z,14.20
2019-04-23T15:15:02.590Z,14.20
2019-04-23T15:17:26.899Z,14.00
2019-04-23T15:22:35.135Z,13.90
2019-04-23T15:25:15.335Z,13.90
2019-04-23T15:28:03.108Z,13.90
2019-04-23T15:29:56.469Z,13.90
2019-04-23T15:33:23.562Z,13.90
2019-04-23T15:38:20.487Z,13.90
2019-04-23T15:40:36.694Z,13.90
2019-04-23T15:43:12.184Z,13.90
2019-04-23T15:48:06.461Z,13.80
2019-04-23T15:53:01.322Z,13.80
2019-04-23T15:55:27.551Z,13.80
2019-04-23T16:02:38.312Z,13.80
2019-04-23T16:05:09.442Z,13.80
2019-04-23T16:07:57.986Z,13.80
2019-04-23T16:10:45.674Z,13.80
2019-04-23T16:13:14.944Z,13.70
2019-04-23T16:15:38.523Z,13.70
2019-04-23T16:18:29.856Z,13.70
2019-04-23T16:21:12.531Z,13.70
2019-04-23T16:23:17.868Z,13.60
2019-04-23T16:25:49.716Z,13.60
2019-04-23T16:28:18.994Z,13.60
2019-04-23T16:30:59.588Z,13.50
2019-04-23T16:33:11.038Z,13.50
2019-04-23T16:38:36.662Z,13.40
2019-04-23T16:41:09.551Z,13.40
2019-04-23T16:45:53.150Z,13.40
2019-04-23T16:48:46.111Z,13.30
2019-04-23T16:51:11.252Z,13.30
2019-04-23T16:53:21.619Z,13.20
2019-04-23T16:55:55.094Z,13.20
2019-04-23T16:58:36.596Z,13.20
2019-04-23T17:03:31.495Z,13.10
2019-04-23T17:06:08.558Z,13.00
2019-04-23T17:08:52.275Z,13.00
2019-04-23T17:11:10.029Z,13.00
2019-04-23T17:13:39.889Z,12.90
2019-04-23T17:16:06.672Z,12.90
2019-04-23T17:18:31.301Z,12.80
2019-04-23T17:20:56.396Z,12.80
2019-04-23T17:23:50.116Z,12.70
2019-04-23T17:26:04.213Z,12.60
2019-04-23T17:31:18.812Z,12.50
2019-04-23T17:38:49.412Z,12.30
2019-04-23T17:44:12.573Z,12.20
2019-04-23T17:46:39.444Z,12.10
2019-04-23T17:49:08.151Z,12.00
2019-04-23T17:51:26.046Z,12.00
2019-04-23T17:54:17.873Z,12.00
2019-04-23T17:59:04.315Z,11.90
2019-04-23T18:01:59.244Z,11.80
2019-04-23T18:09:11.042Z,11.60
2019-04-23T18:11:31.301Z,11.50
2019-04-23T18:14:02.258Z,11.50
2019-04-23T18:22:02.743Z,11.40
2019-04-23T18:24:22.773Z,11.30
2019-04-23T18:27:02.901Z,11.30
2019-04-23T18:32:13.129Z,11.30
2019-04-23T18:34:54.963Z,11.30
2019-04-23T18:37:12.106Z,11.30
2019-04-23T18:39:36.931Z,11.30
2019-04-23T18:47:07.599Z,11.30
2019-04-23T18:49:40.959Z,11.30
2019-04-23T18:52:05.135Z,11.30
2019-04-23T18:59:47.411Z,11.30
2019-04-23T19:02:24.066Z,11.30
2019-04-23T19:05:02.880Z,11.30
2019-04-23T19:07:27.424Z,11.30
2019-04-23T19:10:16.893Z,11.30
2019-04-23T19:12:48.813Z,11.30
2019-04-23T19:15:15.462Z,11.30
2019-04-23T19:20:18.073Z,11.40
2019-04-23T19:22:46.265Z,11.50
2019-04-23T19:25:21.122Z,11.50
2019-04-23T19:27:57.377Z,11.40
2019-04-23T19:30:14.020Z,11.40
2019-04-23T19:32:50.685Z,11.40
2019-04-23T19:35:44.122Z,11.40
2019-04-23T19:37:55.617Z,11.40
2019-04-23T19:40:24.406Z,11.50
2019-04-23T19:42:55.406Z,11.50
2019-04-23T19:45:24.595Z,11.50
2019-04-23T19:48:09.317Z,11.50
2019-04-23T19:50:29.890Z,11.60
2019-04-23T19:55:16.947Z,11.50
2019-04-23T19:57:55.330Z,11.50
2019-04-23T20:00:17.510Z,11.50
2019-04-23T20:05:23.594Z,11.50
2019-04-23T20:07:54.535Z,11.50
2019-04-23T20:10:21.377Z,11.50
2019-04-23T20:12:44.602Z,11.50
2019-04-23T20:15:15.866Z,11.50
2019-04-23T20:17:51.271Z,11.50
2019-04-23T20:20:26.520Z,11.50
2019-04-23T20:22:52.018Z,11.50
2019-04-23T20:30:41.327Z,11.60
2019-04-23T20:33:49.227Z,11.60
2019-04-23T20:35:44.992Z,11.60
2019-04-23T20:40:49.086Z,11.60
2019-04-23T20:43:09.351Z,11.70
2019-04-23T20:48:17.401Z,11.60
2019-04-23T20:50:41.926Z,11.60
2019-04-23T20:53:06.561Z,11.60
2019-04-23T20:56:05.517Z,11.50
2019-04-23T20:58:14.153Z,11.50
2019-04-23T21:00:57.026Z,11.50
2019-04-23T21:03:28.942Z,11.50
2019-04-23T21:05:41.236Z,11.50
2019-04-23T21:08:16.244Z,11.50
2019-04-23T21:10:40.512Z,11.50
2019-04-23T21:13:27.186Z,11.50
2019-04-23T21:15:45.998Z,11.50
2019-04-23T21:18:26.469Z,11.50
2019-04-23T21:20:54.781Z,11.50
2019-04-23T21:28:37.263Z,11.50
2019-04-23T21:31:28.290Z,11.50
2019-04-23T21:36:13.386Z,11.50
2019-04-23T21:39:07.416Z,11.60
2019-04-23T21:44:08.302Z,11.60
2019-04-23T21:46:38.300Z,11.60
2019-04-23T21:56:35.370Z,11.60
2019-04-23T21:59:28.614Z,11.60
2019-04-23T22:04:08.845Z,11.60
2019-04-23T22:09:08.805Z,11.60
2019-04-23T22:14:04.122Z,11.50
2019-04-23T22:19:10.220Z,11.50
2019-04-23T22:21:36.714Z,11.50
2019-04-23T22:26:28.563Z,11.60
2019-04-23T22:29:05.513Z,11.60
2019-04-23T22:31:38.739Z,11.50
2019-04-23T22:34:06.259Z,11.60
2019-04-23T22:36:21.046Z,11.60
2019-04-23T22:39:00.341Z,11.70
2019-04-23T22:41:30.357Z,11.70
2019-04-23T22:44:07.135Z,11.70
2019-04-23T22:46:43.273Z,11.80
2019-04-23T22:49:14.598Z,11.80
2019-04-23T22:51:47.605Z,11.80
2019-04-23T22:54:05.520Z,11.80
2019-04-23T22:56:42.638Z,11.70
2019-04-23T22:59:10.296Z,11.80
2019-04-23T23:01:42.175Z,11.80
2019-04-23T23:04:18.053Z,11.70
2019-04-23T23:09:25.374Z,11.70
2019-04-23T23:14:28.092Z,11.60
2019-04-23T23:17:09.149Z,11.60
2019-04-23T23:19:40.416Z,11.50
2019-04-23T23:22:10.469Z,11.60
2019-04-23T23:24:38.625Z,11.60
2019-04-23T23:27:16.689Z,11.60
2019-04-23T23:29:42.590Z,11.50
2019-04-23T23:32:09.288Z,11.50
2019-04-23T23:34:58.518Z,11.50
2019-04-23T23:37:07.415Z,11.50
2019-04-23T23:39:39.148Z,11.50
2019-04-23T23:42:11.160Z,11.50
2019-04-23T23:44:54.558Z,11.50
2019-04-23T23:47:13.159Z,11.50
2019-04-23T23:49:48.420Z,11.40
2019-04-23T23:52:21.137Z,11.40
2019-04-23T23:54:35.718Z,11.40
